LNFTM EDDM-EDDC

Flight info

Callsign LNFTM
Flight time N/A
Altitude 9000
Route AKINI MAMOR L132 ABKIS
Aircraft DA40/L-LSBDGRY/S

Departure

Time 2026-05-06 16:08
Airport Munich Airport (EDDM)

Arrival

Time N/A
Airport Dresden Airport (EDDC)
Time Latitude Longitude Altitude Speed Heading
2026-05-06 15:23 48.35198 11.80479 1456 ft 0 kts 353°
2026-05-06 15:55 48.35213 11.80478 1456 ft 2 kts
2026-05-06 15:55 48.35239 11.80474 1456 ft 3 kts 339°
2026-05-06 15:56 48.35293 11.80445 1456 ft 10 kts 347°
2026-05-06 15:56 48.35362 11.80425 1456 ft 10 kts 354°
2026-05-06 15:56 48.35419 11.80394 1456 ft 6 kts 287°
2026-05-06 15:56 48.35418 11.80340 1456 ft 6 kts 265°
2026-05-06 15:57 48.35413 11.80276 1456 ft 7 kts 262°
2026-05-06 15:57 48.35408 11.80203 1456 ft 7 kts 265°
2026-05-06 15:57 48.35425 11.80149 1456 ft 5 kts 322°
2026-05-06 15:57 48.35469 11.80128 1456 ft 7 kts 353°
2026-05-06 15:58 48.35512 11.80121 1456 ft 8 kts 353°
2026-05-06 15:58 48.35587 11.80109 1456 ft 11 kts 352°
2026-05-06 15:58 48.35669 11.80092 1456 ft 10 kts 348°
2026-05-06 15:58 48.35743 11.80072 1455 ft 11 kts 354°
2026-05-06 15:59 48.35813 11.80043 1453 ft 10 kts 315°
2026-05-06 15:59 48.35828 11.79964 1454 ft 6 kts 265°
2026-05-06 15:59 48.35823 11.79907 1455 ft 4 kts 261°
2026-05-06 15:59 48.35817 11.79832 1456 ft 9 kts 263°
2026-05-06 16:00 48.35810 11.79741 1456 ft 8 kts 262°
2026-05-06 16:00 48.35801 11.79649 1457 ft 7 kts 263°
2026-05-06 16:00 48.35800 11.79565 1458 ft 7 kts 285°
2026-05-06 16:00 48.35831 11.79524 1459 ft 5 kts 346°
2026-05-06 16:01 48.35851 11.79519 1459 ft 0 kts
2026-05-06 16:01 48.35870 11.79515 1459 ft 1 kts 347°
2026-05-06 16:01 48.35871 11.79515 1459 ft 0 kts
2026-05-06 16:02 48.35889 11.79512 1458 ft 8 kts 355°
2026-05-06 16:03 48.35918 11.79514 1458 ft 0 kts 32°
2026-05-06 16:03 48.35932 11.79515 1457 ft 3 kts 355°
2026-05-06 16:03 48.35950 11.79505 1457 ft 5 kts 340°
2026-05-06 16:03 48.35981 11.79495 1457 ft 1 kts 354°
2026-05-06 16:04 48.36019 11.79490 1456 ft 8 kts 353°
2026-05-06 16:04 48.36088 11.79478 1455 ft 11 kts 354°
2026-05-06 16:04 48.36168 11.79466 1453 ft 9 kts
2026-05-06 16:04 48.36206 11.79506 1452 ft 7 kts 62°
2026-05-06 16:05 48.36222 11.79590 1450 ft 9 kts 82°
2026-05-06 16:05 48.36231 11.79695 1450 ft 10 kts 83°
2026-05-06 16:05 48.36241 11.79823 1449 ft 17 kts 83°
2026-05-06 16:05 48.36258 11.80053 1446 ft 23 kts 83°
2026-05-06 16:06 48.36275 11.80292 1444 ft 21 kts 84°
2026-05-06 16:06 48.36303 11.80467 1444 ft 10 kts 46°
2026-05-06 16:06 48.36356 11.80475 1443 ft 7 kts 319°
2026-05-06 16:06 48.36402 11.80362 1443 ft 20 kts 295°
2026-05-06 16:07 48.36477 11.80109 1443 ft 32 kts 292°
2026-05-06 16:07 48.36509 11.79744 1447 ft 48 kts 264°
2026-05-06 16:07 48.36454 11.79055 1525 ft 73 kts 265°
2026-05-06 16:07 48.36379 11.78298 1701 ft 75 kts 268°
2026-05-06 16:08 48.36366 11.77503 1867 ft 77 kts 272°
2026-05-06 16:08 48.36302 11.76649 2028 ft 85 kts 265°
2026-05-06 16:08 48.36229 11.75804 2273 ft 83 kts 265°
2026-05-06 16:08 48.36158 11.74957 2491 ft 83 kts 274°
2026-05-06 16:09 48.36103 11.74066 2733 ft 82 kts 263°
2026-05-06 16:09 48.36010 11.73263 2976 ft 80 kts 266°
2026-05-06 16:09 48.35936 11.72428 3215 ft 78 kts 267°
2026-05-06 16:09 48.35879 11.71611 3424 ft 80 kts 270°
2026-05-06 16:10 48.35825 11.70767 3649 ft 79 kts 271°
2026-05-06 16:10 48.35820 11.69926 3854 ft 81 kts 280°
2026-05-06 16:10 48.35905 11.69129 4109 ft 76 kts 284°
2026-05-06 16:10 48.36071 11.68354 4307 ft 80 kts 292°
2026-05-06 16:11 48.36325 11.67602 4524 ft 81 kts 301°
2026-05-06 16:11 48.36661 11.66924 4735 ft 82 kts 309°
2026-05-06 16:11 48.37076 11.66331 4963 ft 82 kts 320°
2026-05-06 16:11 48.37561 11.65850 5173 ft 84 kts 328°
2026-05-06 16:12 48.38100 11.65500 5405 ft 84 kts 338°
2026-05-06 16:12 48.38673 11.65283 5612 ft 86 kts 343°
2026-05-06 16:12 48.39270 11.65097 5810 ft 89 kts 342°
2026-05-06 16:12 48.39860 11.64916 6033 ft 88 kts 342°
2026-05-06 16:13 48.40489 11.64723 6224 ft 91 kts 342°
2026-05-06 16:13 48.41100 11.64536 6439 ft 91 kts 341°
2026-05-06 16:13 48.41720 11.64346 6658 ft 91 kts 341°
2026-05-06 16:13 48.42335 11.64158 6868 ft 92 kts 340°
2026-05-06 16:14 48.43018 11.64258 7043 ft 105 kts 19°
2026-05-06 16:14 48.43628 11.64816 7243 ft 109 kts 27°
2026-05-06 16:14 48.44260 11.65452 7472 ft 107 kts 28°
2026-05-06 16:14 48.44868 11.66070 7713 ft 104 kts 26°
2026-05-06 16:15 48.45478 11.66677 7899 ft 107 kts 26°
2026-05-06 16:15 48.46110 11.67299 8084 ft 109 kts 26°
2026-05-06 16:15 48.46731 11.67916 8300 ft 109 kts 26°
2026-05-06 16:15 48.47373 11.68543 8480 ft 110 kts 25°
2026-05-06 16:16 48.48034 11.69186 8579 ft 116 kts 27°
2026-05-06 16:16 48.48704 11.69840 8672 ft 116 kts 28°
2026-05-06 16:16 48.49388 11.70512 8740 ft 114 kts 26°
2026-05-06 16:16 48.50035 11.71152 8762 ft 112 kts 27°
2026-05-06 16:17 48.50673 11.71780 8731 ft 106 kts 27°
2026-05-06 16:17 48.51295 11.72394 8625 ft 107 kts 26°
2026-05-06 16:17 48.51945 11.72993 8468 ft 106 kts 22°
2026-05-06 16:17 48.52561 11.73488 8039 ft 107 kts 19°
2026-05-06 16:18 48.53191 11.74068 7544 ft 109 kts 27°
2026-05-06 16:18 48.53804 11.74696 7160 ft 106 kts 30°
2026-05-06 16:18 48.54389 11.75320 6852 ft 102 kts 29°
2026-05-06 16:18 48.54956 11.75933 6771 ft 97 kts 29°
2026-05-06 16:19 48.55499 11.76533 6715 ft 98 kts 30°
2026-05-06 16:19 48.56090 11.77130 6658 ft 105 kts 24°
2026-05-06 16:19 48.56755 11.77706 6606 ft 116 kts 24°
2026-05-06 16:19 48.57475 11.78336 6644 ft 121 kts 26°
2026-05-06 16:20 48.58179 11.79049 6758 ft 122 kts 28°
2026-05-06 16:20 48.58897 11.79771 6813 ft 129 kts 27°
2026-05-06 16:20 48.59681 11.80538 6863 ft 137 kts 27°
2026-05-06 16:20 48.60494 11.81333 6872 ft 144 kts 27°
2026-05-06 16:21 48.61365 11.82184 6828 ft 149 kts 28°
2026-05-06 16:21 48.62225 11.83027 6809 ft 151 kts 28°
2026-05-06 16:21 48.63115 11.83901 6820 ft 150 kts 28°
2026-05-06 16:21 48.63986 11.84760 6835 ft 149 kts 28°
2026-05-06 16:22 48.64862 11.85619 6802 ft 151 kts 28°
2026-05-06 16:22 48.65744 11.86482 6795 ft 152 kts 28°
2026-05-06 16:22 48.66607 11.87330 6818 ft 150 kts 28°
2026-05-06 16:22 48.67496 11.88199 6773 ft 153 kts 28°
2026-05-06 16:23 48.68334 11.89023 6783 ft 153 kts 28°
2026-05-06 16:23 48.69244 11.89921 6802 ft 152 kts 29°
2026-05-06 16:23 48.70124 11.90785 6789 ft 153 kts 29°
2026-05-06 16:23 48.71031 11.91675 6787 ft 153 kts 29°
2026-05-06 16:24 48.71919 11.92550 6785 ft 154 kts 29°
2026-05-06 16:24 48.72819 11.93435 6781 ft 154 kts 29°
2026-05-06 16:24 48.73714 11.94315 6779 ft 154 kts 29°
2026-05-06 16:24 48.74612 11.95199 6773 ft 155 kts 30°
2026-05-06 16:25 48.75518 11.96090 6772 ft 155 kts 30°
2026-05-06 16:25 48.76421 11.96980 6774 ft 156 kts 31°
2026-05-06 16:25 48.77329 11.97876 6774 ft 156 kts 31°
2026-05-06 16:25 48.78244 11.98780 6767 ft 157 kts 31°
2026-05-06 16:26 48.79159 11.99683 6767 ft 157 kts 31°
2026-05-06 16:26 48.80069 12.00581 6763 ft 157 kts 31°
2026-05-06 16:26 48.80909 12.01412 6763 ft 157 kts 31°
2026-05-06 16:26 48.81710 12.02204 6763 ft 157 kts 31°
2026-05-06 16:27 48.84719 12.05181 6763 ft 157 kts 31°
2026-05-06 16:27 48.85649 12.06102 6762 ft 157 kts 31°
2026-05-06 16:28 48.86561 12.07006 6763 ft 157 kts 31°
2026-05-06 16:28 48.87483 12.07919 6763 ft 157 kts 31°
2026-05-06 16:28 48.88401 12.08829 6763 ft 157 kts 31°
2026-05-06 16:28 48.89294 12.09715 6763 ft 157 kts 31°
2026-05-06 16:29 48.90214 12.10628 6763 ft 157 kts 31°
2026-05-06 16:29 48.91132 12.11539 6763 ft 157 kts 31°
2026-05-06 16:29 48.92043 12.12444 6763 ft 157 kts 31°
2026-05-06 16:29 48.92971 12.13366 6763 ft 157 kts 31°
2026-05-06 16:30 48.93887 12.14276 6763 ft 157 kts 31°
2026-05-06 16:30 48.94499 12.14885 6763 ft 157 kts 31°
2026-05-06 16:30 48.95718 12.16097 6763 ft 157 kts 31°
2026-05-06 16:30 48.96631 12.17007 6763 ft 157 kts 31°
2026-05-06 16:31 48.97550 12.17921 6763 ft 157 kts 31°
2026-05-06 16:31 48.98459 12.18827 6763 ft 157 kts 31°
2026-05-06 16:31 48.99384 12.19749 6763 ft 157 kts 31°
2026-05-06 16:31 49.00269 12.20632 6763 ft 157 kts 31°
2026-05-06 16:32 49.01170 12.21531 6763 ft 157 kts 31°
2026-05-06 16:32 49.02052 12.22410 6763 ft 157 kts 31°
2026-05-06 16:32 49.02963 12.23320 6763 ft 157 kts 31°
2026-05-06 16:32 49.03889 12.24245 6763 ft 157 kts 31°
2026-05-06 16:33 49.04796 12.25152 6763 ft 157 kts 31°
2026-05-06 16:33 49.05710 12.26066 6763 ft 157 kts 31°
2026-05-06 16:33 49.06625 12.26980 6763 ft 157 kts 31°
2026-05-06 16:34 49.08464 12.28821 6763 ft 156 kts 31°
2026-05-06 16:34 49.09389 12.29747 6763 ft 156 kts 31°
2026-05-06 16:34 49.10311 12.30672 6763 ft 156 kts 31°
2026-05-06 16:34 49.11219 12.31582 6761 ft 156 kts 31°
2026-05-06 16:35 49.12127 12.32492 6761 ft 156 kts 31°
2026-05-06 16:35 49.13029 12.33397 6761 ft 156 kts 31°
2026-05-06 16:35 49.13934 12.34305 6761 ft 155 kts 31°
2026-05-06 16:35 49.14838 12.35214 6761 ft 155 kts 31°
2026-05-06 16:36 49.15730 12.36109 6761 ft 155 kts 31°
2026-05-06 16:36 49.16627 12.37011 6761 ft 155 kts 31°
2026-05-06 16:36 49.17442 12.37831 6762 ft 155 kts 31°
2026-05-06 16:36 49.18412 12.38807 6762 ft 155 kts 31°
2026-05-06 16:37 49.19317 12.39717 6762 ft 155 kts 31°
2026-05-06 16:37 49.20227 12.40634 6762 ft 155 kts 31°
2026-05-06 16:37 49.21134 12.41547 6762 ft 155 kts 31°
2026-05-06 16:37 49.22031 12.42451 6762 ft 155 kts 31°
2026-05-06 16:38 49.22933 12.43360 6762 ft 155 kts 31°
2026-05-06 16:38 49.23835 12.44270 6762 ft 155 kts 31°
2026-05-06 16:38 49.24756 12.45200 6762 ft 155 kts 31°
2026-05-06 16:38 49.25658 12.46110 6762 ft 155 kts 31°
2026-05-06 16:39 49.26572 12.47034 6762 ft 155 kts 31°
2026-05-06 16:39 49.27470 12.47941 6762 ft 155 kts 31°
2026-05-06 16:39 49.28367 12.48848 6761 ft 156 kts 31°
2026-05-06 16:39 49.29270 12.49762 6761 ft 156 kts 31°
2026-05-06 16:40 49.30168 12.50670 6760 ft 156 kts 31°
2026-05-06 16:40 49.31089 12.51604 6759 ft 156 kts 31°
2026-05-06 16:40 49.31986 12.52512 6758 ft 155 kts 31°
2026-05-06 16:40 49.32895 12.53432 6755 ft 156 kts 34°
2026-05-06 16:41 49.33909 12.54061 6759 ft 156 kts 16°
2026-05-06 16:41 49.34774 12.54401 6751 ft 157 kts 14°
2026-05-06 16:41 49.35718 12.54733 6758 ft 156 kts 13°
2026-05-06 16:42 49.37503 12.55329 6752 ft 155 kts 14°
2026-05-06 16:42 49.38388 12.55616 6750 ft 155 kts 14°